createdAt,value
2023-04-08T00:02:59.032Z,9.15
2023-04-08T00:08:00.853Z,8.38
2023-04-08T00:13:02.644Z,9.23
2023-04-08T00:18:04.324Z,10.30
2023-04-08T00:23:06.300Z,10.27
2023-04-08T00:28:07.980Z,10.35
2023-04-08T00:33:10.070Z,11.77
2023-04-08T00:38:13.577Z,11.00
2023-04-08T00:43:16.623Z,11.75
2023-04-08T00:48:18.281Z,11.38
2023-04-08T00:53:20.250Z,11.52
2023-04-08T00:58:21.902Z,11.80
2023-04-08T01:03:27.514Z,11.55
2023-04-08T01:08:31.375Z,11.27
2023-04-08T01:13:35.938Z,11.32
2023-04-08T01:18:38.819Z,12.02
2023-04-08T01:23:53.018Z,11.38
2023-04-08T01:28:57.853Z,10.93
2023-04-08T01:34:01.268Z,11.05
2023-04-08T01:39:03.449Z,11.00
2023-04-08T01:44:05.458Z,10.85
2023-04-08T01:49:07.487Z,9.90
2023-04-08T01:54:10.607Z,9.50
2023-04-08T01:59:14.538Z,9.23
2023-04-08T02:04:16.637Z,9.20
2023-04-08T02:09:20.244Z,8.88
2023-04-08T02:14:22.970Z,9.20
2023-04-08T02:19:36.514Z,8.85
2023-04-08T02:24:39.016Z,7.65
2023-04-08T02:29:41.490Z,8.57
2023-04-08T02:34:43.729Z,7.85
2023-04-08T02:39:45.539Z,7.10
2023-04-08T02:44:47.949Z,6.93
2023-04-08T02:49:53.232Z,6.53
2023-04-08T02:54:54.866Z,7.20
2023-04-08T02:59:57.090Z,6.10
2023-04-08T03:04:58.996Z,5.57
2023-04-08T03:10:00.816Z,5.85
2023-04-08T03:15:03.527Z,5.82
2023-04-08T03:20:06.218Z,5.85
2023-04-08T03:25:08.336Z,5.75
2023-04-08T03:30:10.357Z,6.10
2023-04-08T03:35:12.141Z,5.93
2023-04-08T03:40:13.779Z,5.78
2023-04-08T03:45:15.425Z,5.75
2023-04-08T03:50:17.106Z,5.78
2023-04-08T03:55:18.712Z,5.25
2023-04-08T04:00:20.332Z,5.17
2023-04-08T04:05:22.283Z,5.25
2023-04-08T04:10:24.196Z,5.35
2023-04-08T04:15:25.907Z,4.60
2023-04-08T04:20:29.189Z,4.70
2023-04-08T04:25:30.870Z,4.47
2023-04-08T04:30:32.536Z,4.85
2023-04-08T04:35:34.226Z,4.60
2023-04-08T04:40:36.224Z,4.32
2023-04-08T04:45:37.833Z,4.88
2023-04-08T04:50:39.473Z,4.63
2023-04-08T04:55:41.281Z,5.00
2023-04-08T05:00:42.880Z,5.50
2023-04-08T05:05:44.501Z,5.07
2023-04-08T05:10:46.423Z,5.32
2023-04-08T05:15:48.341Z,4.75
2023-04-08T05:20:49.956Z,4.77
2023-04-08T05:25:51.557Z,4.60
2023-04-08T05:30:53.458Z,4.70
2023-04-08T05:35:55.111Z,4.00
2023-04-08T05:40:56.766Z,4.70
2023-04-08T05:45:58.346Z,4.80
2023-04-08T05:51:00.269Z,5.25
2023-04-08T05:56:01.886Z,5.68
2023-04-08T06:01:03.859Z,6.13
2023-04-08T06:06:11.618Z,5.70
2023-04-08T06:11:13.258Z,5.60
2023-04-08T06:16:19.584Z,5.93
2023-04-08T06:21:22.560Z,5.32
2023-04-08T06:26:24.139Z,5.78
2023-04-08T06:31:26.060Z,6.38
2023-04-08T06:36:28.380Z,6.75
2023-04-08T06:41:30.760Z,7.38
2023-04-08T06:46:38.452Z,8.63
2023-04-08T06:51:40.433Z,9.68
2023-04-08T06:56:42.008Z,9.40
2023-04-08T07:01:43.693Z,10.07
2023-04-08T07:06:45.852Z,10.40
2023-04-08T07:11:47.476Z,9.93
2023-04-08T07:16:49.165Z,10.52
2023-04-08T07:21:51.004Z,9.50
2023-04-08T07:26:52.918Z,9.73
2023-04-08T07:31:54.504Z,9.77
2023-04-08T07:36:56.248Z,9.18
2023-04-08T07:41:57.887Z,7.90
2023-04-08T07:46:59.477Z,7.30
2023-04-08T07:52:01.256Z,6.60
2023-04-08T07:57:02.942Z,6.25
2023-04-08T08:02:04.701Z,5.30
2023-04-08T08:07:06.296Z,5.38
2023-04-08T08:12:07.905Z,5.30
2023-04-08T08:17:09.551Z,5.15
2023-04-08T08:22:12.042Z,5.53
2023-04-08T08:27:13.640Z,4.80
2023-04-08T08:32:15.246Z,4.78
2023-04-08T08:37:16.892Z,4.88
2023-04-08T08:42:23.175Z,4.97
2023-04-08T08:47:25.068Z,5.10
2023-04-08T08:52:26.675Z,5.30
2023-04-08T08:57:28.345Z,5.57
2023-04-08T09:02:32.134Z,6.32
2023-04-08T09:07:40.547Z,6.90
2023-04-08T09:12:56.248Z,7.28
2023-04-08T09:17:59.052Z,6.88
2023-04-08T09:23:01.817Z,6.60
2023-04-08T09:28:03.551Z,6.55
2023-04-08T09:33:07.394Z,6.90
2023-04-08T09:38:09.159Z,6.38
2023-04-08T09:43:12.781Z,6.80
2023-04-08T09:48:18.553Z,6.90
2023-04-08T09:53:26.651Z,7.30
2023-04-08T09:58:29.578Z,7.40
2023-04-08T10:03:37.614Z,7.70
2023-04-08T10:08:39.375Z,7.45
2023-04-08T10:13:41.426Z,8.05
2023-04-08T10:18:44.223Z,8.25
2023-04-08T10:23:58.947Z,8.50
2023-04-08T10:29:18.791Z,7.20
2023-04-08T10:34:22.722Z,8.05
2023-04-08T10:39:25.436Z,7.35
2023-04-08T10:44:27.150Z,8.00
2023-04-08T10:49:33.863Z,7.03
2023-04-08T10:54:36.730Z,7.15
2023-04-08T10:59:39.858Z,6.30
2023-04-08T11:04:42.853Z,7.53
2023-04-08T11:09:44.868Z,7.85
2023-04-08T11:14:47.800Z,7.85
2023-04-08T11:19:50.461Z,9.52
2023-04-08T11:24:52.225Z,8.93
2023-04-08T11:29:56.167Z,10.55
2023-04-08T11:35:01.217Z,11.63
2023-04-08T11:40:02.862Z,11.98
2023-04-08T11:45:12.345Z,11.95
2023-04-08T11:50:23.069Z,12.63
2023-04-08T11:55:27.045Z,12.98
2023-04-08T12:00:28.725Z,12.60
2023-04-08T12:05:30.461Z,12.35
2023-04-08T12:10:32.106Z,13.95
2023-04-08T12:15:33.714Z,12.43
2023-04-08T12:20:35.416Z,12.18
2023-04-08T12:25:37.010Z,12.98
2023-04-08T12:30:38.588Z,13.77
2023-04-08T12:35:40.285Z,13.43
2023-04-08T12:40:41.947Z,13.63
2023-04-08T12:45:43.553Z,13.55
2023-04-08T12:50:45.409Z,14.20
2023-04-08T12:55:49.116Z,15.30
2023-04-08T13:00:51.334Z,14.15
2023-04-08T13:05:52.961Z,13.20
2023-04-08T13:10:55.196Z,13.15
2023-04-08T13:15:56.795Z,12.98
2023-04-08T13:20:58.591Z,12.57
2023-04-08T13:26:00.462Z,11.63
2023-04-08T13:31:02.120Z,12.10
2023-04-08T13:36:03.972Z,11.43
2023-04-08T13:41:05.656Z,10.50
2023-04-08T13:46:08.091Z,10.55
2023-04-08T13:51:10.341Z,10.82
2023-04-08T13:56:11.935Z,10.98
2023-04-08T14:01:13.548Z,11.38
2023-04-08T14:06:15.242Z,11.85
2023-04-08T14:11:16.812Z,11.48
2023-04-08T14:16:18.540Z,12.38
2023-04-08T14:21:20.289Z,10.63
2023-04-08T14:26:22.043Z,10.25
2023-04-08T14:31:23.679Z,10.25
2023-04-08T14:36:26.209Z,9.60
2023-04-08T14:41:27.807Z,10.07
2023-04-08T14:46:29.573Z,10.65
2023-04-08T14:51:31.824Z,9.57
2023-04-08T14:56:33.531Z,8.93
2023-04-08T15:01:35.820Z,9.38
2023-04-08T15:06:39.023Z,8.27
2023-04-08T15:11:40.645Z,8.82
2023-04-08T15:16:42.311Z,8.98
2023-04-08T15:21:43.953Z,9.32
2023-04-08T15:26:45.582Z,8.98
2023-04-08T15:31:47.153Z,9.30
2023-04-08T15:36:48.748Z,9.70
2023-04-08T15:41:50.365Z,11.55
2023-04-08T15:46:52.063Z,11.63
2023-04-08T15:51:53.650Z,12.32
2023-04-08T15:56:55.238Z,11.20
2023-04-08T16:01:57.126Z,11.45
2023-04-08T16:06:58.784Z,11.95
2023-04-08T16:12:00.374Z,11.18
2023-04-08T16:17:01.986Z,11.05
2023-04-08T16:22:03.679Z,10.90
2023-04-08T16:27:05.519Z,11.50
2023-04-08T16:32:07.313Z,11.85
2023-04-08T16:37:09.072Z,11.05
2023-04-08T16:42:10.988Z,11.75
2023-04-08T16:47:12.577Z,11.52
2023-04-08T16:52:14.164Z,11.68
2023-04-08T16:57:16.574Z,11.23
2023-04-08T17:02:18.513Z,14.00
2023-04-08T17:07:20.219Z,10.52
2023-04-08T17:12:21.930Z,11.27
2023-04-08T17:17:23.561Z,11.35
2023-04-08T17:22:26.133Z,11.48
2023-04-08T17:27:27.736Z,11.20
2023-04-08T17:32:29.385Z,12.55
2023-04-08T17:37:31.015Z,11.63
2023-04-08T17:42:32.629Z,11.52
2023-04-08T17:47:34.256Z,12.00
2023-04-08T17:52:36.085Z,12.10
2023-04-08T17:57:38.948Z,12.82
2023-04-08T18:02:41.808Z,12.35
2023-04-08T18:07:43.649Z,12.23
2023-04-08T18:12:45.839Z,10.88
2023-04-08T18:17:47.720Z,11.82
2023-04-08T18:22:49.394Z,12.45
2023-04-08T18:27:50.994Z,13.07
2023-04-08T18:32:52.761Z,12.35
2023-04-08T18:37:54.452Z,11.23
2023-04-08T18:42:56.244Z,12.73
2023-04-08T18:47:57.908Z,13.57
2023-04-08T18:52:59.561Z,12.93
2023-04-08T18:58:01.143Z,13.38
2023-04-08T19:03:03.529Z,14.73
2023-04-08T19:08:05.765Z,12.98
2023-04-08T19:13:07.380Z,12.57
2023-04-08T19:18:09.820Z,13.38
2023-04-08T19:23:11.496Z,14.05
2023-04-08T19:28:14.334Z,14.15
2023-04-08T19:33:15.900Z,14.30
2023-04-08T19:38:17.490Z,14.88
2023-04-08T19:43:19.158Z,14.38
2023-04-08T19:48:21.312Z,15.23
2023-04-08T19:53:23.012Z,14.68
2023-04-08T19:58:24.597Z,15.30
2023-04-08T20:03:26.458Z,14.48
2023-04-08T20:08:28.375Z,14.07
2023-04-08T20:13:29.972Z,14.63
2023-04-08T20:18:32.763Z,14.48
2023-04-08T20:23:34.346Z,14.60
2023-04-08T20:28:36.679Z,13.88
2023-04-08T20:33:43.524Z,14.13
2023-04-08T20:38:45.346Z,13.85
2023-04-08T20:43:46.946Z,14.48
2023-04-08T20:48:48.590Z,14.13
2023-04-08T20:53:50.637Z,14.90
2023-04-08T20:58:52.483Z,15.57
2023-04-08T21:03:54.718Z,15.30
2023-04-08T21:08:56.484Z,15.50
2023-04-08T21:13:58.088Z,15.52
2023-04-08T21:19:01.827Z,15.75
2023-04-08T21:24:04.565Z,15.83
2023-04-08T21:29:06.315Z,16.52
2023-04-08T21:34:08.005Z,16.13
2023-04-08T21:39:09.644Z,16.27
2023-04-08T21:44:11.230Z,15.90
2023-04-08T21:49:13.764Z,14.50
2023-04-08T21:54:15.520Z,16.23
2023-04-08T21:59:17.179Z,15.43
2023-04-08T22:04:19.740Z,15.68
2023-04-08T22:09:21.678Z,17.17
2023-04-08T22:14:23.577Z,16.27
2023-04-08T22:19:25.363Z,15.85
2023-04-08T22:24:27.677Z,16.47
2023-04-08T22:29:29.701Z,16.27
2023-04-08T22:34:31.319Z,15.43
2023-04-08T22:39:32.925Z,17.08
2023-04-08T22:44:34.557Z,17.30
2023-04-08T22:49:36.396Z,17.80
2023-04-08T22:54:37.969Z,18.75
2023-04-08T22:59:39.743Z,18.33
2023-04-08T23:04:41.315Z,18.07
2023-04-08T23:09:42.946Z,19.15
2023-04-08T23:14:44.522Z,18.07
2023-04-08T23:19:46.165Z,16.53
2023-04-08T23:24:48.336Z,16.08
2023-04-08T23:29:49.928Z,16.30
2023-04-08T23:34:51.494Z,15.73
2023-04-08T23:39:54.466Z,16.13
2023-04-08T23:44:56.072Z,15.50
2023-04-08T23:49:57.725Z,15.27
2023-04-08T23:54:59.342Z,16.13
